S68 weather

Public forecast

Using degrees Fahrenheit for public forecast. Weather courtesy of forecast.io.

Closest aviation weather report (METAR) to Orofino Municipal Airport

Closest report is Lewiston Nez Perce County Airport, 31.3 nm (58.0 km) WSW. Retrieved 2020/08/15 02:56 UTC (54 minutes ago):

KLWS 150256Z 00000KT 10SM CLR 28/01 A3005 RMK AO2 SLP167 T02830011 55009

Closest aviation forecast (TAF) to Orofino Municipal Airport

Closest forecast is Lewiston Nez Perce County Airport, 31.3 nm (58.0 km) WSW. Retrieved 2020-08-15 00:22 UTC (3 hours ago):

TAF KLWS 142320Z 1500/1524 34005KT P6SM SKC FM150300 VRB03KT P6SM SKC